createdAt,value
2018-04-30T05:13:48.185Z,23.1
2018-04-30T05:14:37.752Z,23.1
2018-04-30T05:15:28.599Z,23.1
2018-04-30T05:16:18.100Z,23
2018-04-30T05:17:08.780Z,23.1
2018-04-30T05:17:58.791Z,23
2018-04-30T05:18:48.570Z,23
2018-04-30T05:19:38.983Z,23
2018-04-30T05:20:28.692Z,23
2018-04-30T05:21:18.780Z,22.9
2018-04-30T05:22:08.557Z,22.9
2018-04-30T05:22:59.181Z,22.9
2018-04-30T05:23:49.214Z,22.9
2018-04-30T05:24:39.022Z,22.9
2018-04-30T05:25:29.409Z,22.9
2018-04-30T05:26:19.164Z,22.9
2018-04-30T05:27:09.500Z,22.9
2018-04-30T05:27:59.302Z,22.9
2018-04-30T05:28:49.716Z,22.9
2018-04-30T05:29:39.221Z,22.9
2018-04-30T05:30:29.747Z,22.9
2018-04-30T05:31:19.363Z,22.9
2018-04-30T05:32:09.715Z,22.9
2018-04-30T05:32:59.399Z,22.9
2018-04-30T05:33:50.362Z,22.9
2018-04-30T05:34:39.237Z,22.9
2018-04-30T05:35:29.678Z,22.9
2018-04-30T05:36:20.226Z,22.9
2018-04-30T05:37:09.978Z,22.9
2018-04-30T05:37:59.468Z,27.1
2018-04-30T05:38:49.565Z,28.5
2018-04-30T05:39:40.171Z,31.5
2018-04-30T05:40:29.661Z,32.9
2018-04-30T05:41:19.865Z,32.4
2018-04-30T05:42:10.393Z,30.4
2018-04-30T05:43:00.181Z,28.4
2018-04-30T05:43:50.535Z,27.4
2018-04-30T05:44:40.311Z,26.9
2018-04-30T05:45:30.356Z,26.6
2018-04-30T05:46:19.873Z,26.4
2018-04-30T05:47:10.181Z,26.2
2018-04-30T05:48:00.846Z,26.1
2018-04-30T05:48:50.607Z,25.9
2018-04-30T05:49:40.965Z,25.8
2018-04-30T05:50:31.388Z,25.8
2018-04-30T05:51:20.538Z,25.6
2018-04-30T05:52:11.182Z,25.6
2018-04-30T05:53:01.176Z,25.6
2018-04-30T05:53:50.990Z,25.5
2018-04-30T05:54:41.347Z,25.3
2018-04-30T05:55:31.413Z,30
2018-04-30T05:56:21.460Z,31.4
2018-04-30T05:57:11.812Z,33.4
2018-04-30T05:58:01.591Z,34.1
2018-04-30T05:58:51.912Z,34
2018-04-30T05:59:41.982Z,33.8
2018-04-30T06:00:32.409Z,33.8
2018-04-30T06:01:21.652Z,34
2018-04-30T06:02:11.624Z,34.3
2018-04-30T06:03:01.982Z,34.4
2018-04-30T06:03:52.339Z,34.4
2018-04-30T06:04:41.810Z,34.4
2018-04-30T06:05:32.155Z,34.6
2018-04-30T06:06:21.952Z,34.6
2018-04-30T06:07:11.773Z,34.7
2018-04-30T06:08:02.359Z,34.7
2018-04-30T06:08:52.187Z,34.8
2018-04-30T06:09:42.511Z,34.8
2018-04-30T06:10:32.822Z,34.8
2018-04-30T06:11:22.681Z,34.9
2018-04-30T06:12:12.761Z,34.9
2018-04-30T06:13:02.774Z,35.1
2018-04-30T06:13:53.109Z,35.1
2018-04-30T06:14:43.152Z,35.3
2018-04-30T06:15:33.211Z,35.4
2018-04-30T06:16:22.720Z,35.4
2018-04-30T06:17:13.340Z,35.6
2018-04-30T06:18:02.878Z,35.6
2018-04-30T06:18:52.902Z,35.8
2018-04-30T06:19:43.612Z,35.9
2018-04-30T06:20:33.585Z,36
2018-04-30T06:21:23.095Z,36.1
2018-04-30T06:22:13.739Z,36.3
2018-04-30T06:23:03.246Z,36.4
2018-04-30T06:23:53.645Z,36.6
2018-04-30T06:24:43.950Z,36.6
2018-04-30T06:25:33.981Z,36.8
2018-04-30T06:26:24.070Z,36.8
2018-04-30T06:27:13.360Z,36.8
2018-04-30T06:28:03.893Z,36.9
2018-04-30T06:28:54.005Z,37
2018-04-30T06:29:44.018Z,37
2018-04-30T06:30:34.363Z,37
2018-04-30T06:31:23.310Z,37
2018-04-30T06:32:14.222Z,37
2018-04-30T06:33:04.563Z,37
2018-04-30T06:33:54.637Z,37
2018-04-30T06:34:43.870Z,37.1
2018-04-30T06:35:34.734Z,37.1
2018-04-30T06:36:24.291Z,37.3
2018-04-30T06:37:14.304Z,37.4
2018-04-30T06:38:04.951Z,37.6
2018-04-30T06:38:54.775Z,37.8
2018-04-30T06:39:44.794Z,38
2018-04-30T06:40:34.594Z,38.3
2018-04-30T06:41:25.190Z,38.4
2018-04-30T06:42:14.692Z,38.7
2018-04-30T06:43:05.047Z,38.9
2018-04-30T06:43:54.590Z,39.1
2018-04-30T06:44:45.457Z,39.3
2018-04-30T06:45:34.640Z,39.4
2018-04-30T06:46:25.320Z,39.6
2018-04-30T06:47:15.380Z,39.8
2018-04-30T06:48:05.743Z,39.9
2018-04-30T06:48:55.298Z,40.1
2018-04-30T06:49:45.880Z,40.1
2018-04-30T06:50:35.474Z,40.3
2018-04-30T06:51:25.434Z,40.4
2018-04-30T06:52:16.069Z,40.5
2018-04-30T06:53:05.526Z,40.7
2018-04-30T06:53:55.900Z,40.8
2018-04-30T06:54:45.944Z,41
2018-04-30T06:55:35.819Z,41.1
2018-04-30T06:56:26.392Z,41.3
2018-04-30T06:57:15.919Z,41.4
2018-04-30T06:58:05.729Z,41.6
2018-04-30T06:58:55.869Z,41.7
2018-04-30T06:59:45.580Z,41.8
2018-04-30T07:00:35.936Z,41.9
2018-04-30T07:01:26.159Z,42
2018-04-30T07:02:16.548Z,42.1
2018-04-30T07:03:06.901Z,42.2
2018-04-30T07:03:56.719Z,42.2
2018-04-30T07:04:46.465Z,42.2
2018-04-30T07:05:36.789Z,42.2
2018-04-30T07:06:27.213Z,42.2
2018-04-30T07:07:16.693Z,42.3
2018-04-30T07:08:06.742Z,42.4
2018-04-30T07:08:57.326Z,42.4
2018-04-30T07:09:47.807Z,42.6
2018-04-30T07:10:37.190Z,42.7
2018-04-30T07:11:27.545Z,42.8
2018-04-30T07:12:17.342Z,43
2018-04-30T07:13:07.421Z,43.3
2018-04-30T07:13:57.772Z,43.4
2018-04-30T07:14:46.985Z,43.7
2018-04-30T07:15:37.875Z,43.8
2018-04-30T07:16:28.007Z,44
2018-04-30T07:17:17.800Z,44.2
2018-04-30T07:18:07.363Z,44.3
2018-04-30T07:18:57.574Z,44.6
2018-04-30T07:19:47.750Z,44.7
2018-04-30T07:20:38.241Z,44.9
2018-04-30T07:21:28.029Z,45
2018-04-30T07:22:17.828Z,45.1
2018-04-30T07:23:08.218Z,45.2
2018-04-30T07:23:58.237Z,45.3
2018-04-30T07:24:48.051Z,45.4
2018-04-30T07:25:38.369Z,45.4
2018-04-30T07:26:27.871Z,45.5
2018-04-30T07:27:18.767Z,45.5
2018-04-30T07:28:08.586Z,45.6
2018-04-30T07:28:58.064Z,45.5
2018-04-30T07:29:49.006Z,45.5
2018-04-30T07:30:38.766Z,45.5
2018-04-30T07:31:29.132Z,45.5
2018-04-30T07:32:19.202Z,45.6
2018-04-30T07:33:09.049Z,45.5
2018-04-30T07:33:59.123Z,45.4
2018-04-30T07:34:49.101Z,45.4
2018-04-30T07:35:39.531Z,45.4
2018-04-30T07:36:29.028Z,45.3
2018-04-30T07:37:19.292Z,45.3
2018-04-30T07:38:09.331Z,45.2
2018-04-30T07:38:59.190Z,45.1
2018-04-30T07:39:49.802Z,45.1
2018-04-30T07:40:38.715Z,45.1
2018-04-30T07:41:29.914Z,45
2018-04-30T07:42:19.437Z,44.9
2018-04-30T07:43:09.193Z,44.9
2018-04-30T07:44:00.104Z,44.9
2018-04-30T07:44:49.604Z,44.9
2018-04-30T07:45:39.962Z,44.9
2018-04-30T07:46:30.297Z,44.9
2018-04-30T07:47:19.802Z,44.9
2018-04-30T07:48:10.416Z,45
2018-04-30T07:48:59.644Z,45.2
2018-04-30T07:49:49.987Z,45.5
2018-04-30T07:50:40.676Z,45.9
2018-04-30T07:51:30.666Z,46.3
2018-04-30T07:52:20.208Z,46.6
2018-04-30T07:53:10.290Z,46.9
2018-04-30T07:54:00.865Z,47.2
2018-04-30T07:54:49.909Z,47.4
2018-04-30T07:55:41.016Z,47.6
2018-04-30T07:56:31.057Z,47.9
2018-04-30T07:57:21.906Z,48.1
2018-04-30T07:58:11.264Z,48.3
2018-04-30T07:59:00.997Z,48.5
2018-04-30T07:59:51.130Z,48.7
2018-04-30T08:00:41.125Z,48.9
2018-04-30T08:01:31.496Z,49.1
2018-04-30T08:02:20.997Z,49.3
2018-04-30T08:03:12.345Z,49.5
2018-04-30T08:04:01.667Z,49.7
2018-04-30T08:04:51.444Z,49.8
2018-04-30T08:05:41.503Z,50
2018-04-30T08:06:31.830Z,50.2
2018-04-30T08:07:21.670Z,50.4
2018-04-30T08:08:11.976Z,50.6
2018-04-30T08:09:01.900Z,50.8
2018-04-30T08:09:51.592Z,50.9
2018-04-30T08:10:41.887Z,51.1
2018-04-30T08:11:32.260Z,51.3
2018-04-30T08:12:22.043Z,51.5
2018-04-30T08:13:12.185Z,51.6
2018-04-30T08:14:02.190Z,51.9
2018-04-30T08:14:52.570Z,52
2018-04-30T08:15:42.388Z,52.2
2018-04-30T08:16:32.350Z,52.3
2018-04-30T08:17:22.171Z,52.5
2018-04-30T08:18:12.227Z,52.7
2018-04-30T08:19:02.295Z,52.9
2018-04-30T08:19:52.932Z,53
2018-04-30T08:20:42.415Z,53.1
2018-04-30T08:21:32.588Z,53.2
2018-04-30T08:22:22.668Z,53.2
2018-04-30T08:23:12.919Z,53.3
2018-04-30T08:24:02.956Z,53.3
2018-04-30T08:24:53.038Z,53.3
2018-04-30T08:25:43.116Z,53.4
2018-04-30T08:26:32.337Z,53.4
2018-04-30T08:27:23.501Z,53.4
2018-04-30T08:28:13.562Z,53.4
2018-04-30T08:29:03.348Z,53.4
2018-04-30T08:29:53.468Z,53.4
2018-04-30T08:30:43.201Z,53.4
2018-04-30T08:31:33.832Z,53.4
2018-04-30T08:32:23.442Z,53.4
2018-04-30T08:33:13.392Z,53.4
2018-04-30T08:34:03.479Z,53.5
2018-04-30T08:34:53.614Z,53.6
2018-04-30T08:35:43.432Z,53.9
2018-04-30T08:36:34.569Z,54
2018-04-30T08:37:24.294Z,54.3
2018-04-30T08:38:13.644Z,54.4
2018-04-30T08:39:04.489Z,54.6
2018-04-30T08:39:53.975Z,54.8
2018-04-30T08:40:43.993Z,54.9
2018-04-30T08:41:34.404Z,55.1
2018-04-30T08:42:24.132Z,55.3
2018-04-30T08:43:14.527Z,55.4
2018-04-30T08:44:04.545Z,55.6
2018-04-30T08:44:54.619Z,55.8
2018-04-30T08:45:44.662Z,55.9
2018-04-30T08:46:34.465Z,56.1
2018-04-30T08:47:25.096Z,56.3
2018-04-30T08:48:14.610Z,56.5
2018-04-30T08:49:05.225Z,56.7
2018-04-30T08:49:55.273Z,56.8
2018-04-30T08:50:45.062Z,56.9
2018-04-30T08:51:34.563Z,57.1
2018-04-30T08:52:25.484Z,57.3
2018-04-30T08:53:14.538Z,57.4
2018-04-30T08:54:04.903Z,57.6
2018-04-30T08:55:45.018Z,57.9
2018-04-30T08:56:35.272Z,58.1
2018-04-30T08:57:24.752Z,58.2
2018-04-30T08:58:15.693Z,58.3
2018-04-30T08:59:06.125Z,58.5
2018-04-30T08:59:55.777Z,58.7
2018-04-30T09:00:45.941Z,58.8
2018-04-30T09:01:35.369Z,58.9
2018-04-30T09:02:25.712Z,59.1
2018-04-30T09:03:16.341Z,59.3
2018-04-30T09:04:06.116Z,59.4
2018-04-30T09:04:56.437Z,59.5
2018-04-30T09:05:46.542Z,59.7
2018-04-30T09:06:36.612Z,59.8
2018-04-30T09:07:26.139Z,59.9
2018-04-30T09:08:16.478Z,60.1
2018-04-30T09:09:06.265Z,60.3
2018-04-30T09:09:56.862Z,60.4
2018-04-30T09:10:46.977Z,60.5
2018-04-30T09:11:36.449Z,60.7
2018-04-30T09:12:26.796Z,60.8
2018-04-30T09:13:16.881Z,61
2018-04-30T09:14:06.686Z,61.1
2018-04-30T09:14:57.486Z,61.3
2018-04-30T09:15:47.356Z,61.4
2018-04-30T09:16:37.426Z,61.6
2018-04-30T09:17:27.179Z,61.7
2018-04-30T09:18:17.263Z,61.8
2018-04-30T09:19:07.014Z,61.9
2018-04-30T09:19:57.076Z,62.1
2018-04-30T09:20:47.716Z,62.3
2018-04-30T09:21:37.771Z,62.4
2018-04-30T09:22:27.860Z,62.6
2018-04-30T09:23:17.328Z,62.7
2018-04-30T09:24:07.983Z,62.8
2018-04-30T09:24:58.051Z,62.9
2018-04-30T09:25:47.835Z,63.1
2018-04-30T09:26:37.883Z,63.2
2018-04-30T09:27:28.306Z,63.4
2018-04-30T09:28:19.133Z,63.4
2018-04-30T09:29:09.208Z,63.6
2018-04-30T09:29:58.428Z,63.8
2018-04-30T09:30:48.252Z,63.9
2018-04-30T09:31:38.319Z,64.1
2018-04-30T09:32:28.627Z,64.1
2018-04-30T09:33:18.441Z,64.3
2018-04-30T09:34:08.495Z,64.4
2018-04-30T09:34:58.507Z,64.5
2018-04-30T09:35:48.350Z,64.6
2018-04-30T09:36:39.003Z,64.7
2018-04-30T09:37:28.853Z,64.8
2018-04-30T09:38:18.345Z,64.9
2018-04-30T09:39:08.886Z,65.1
2018-04-30T09:39:59.229Z,65.2
2018-04-30T09:40:49.319Z,65.3
2018-04-30T09:41:38.539Z,65.3
2018-04-30T09:42:29.413Z,65.4
2018-04-30T09:43:19.245Z,65.5
2018-04-30T09:44:09.014Z,65.6
2018-04-30T09:44:59.354Z,65.6
2018-04-30T09:45:49.441Z,65.6
2018-04-30T09:46:39.490Z,65.6
2018-04-30T09:47:29.584Z,65.6
2018-04-30T09:48:19.633Z,65.7
2018-04-30T09:49:09.521Z,65.8
2018-04-30T09:49:59.756Z,65.8
2018-04-30T09:50:49.826Z,65.8
2018-04-30T09:51:39.895Z,65.8
2018-04-30T09:52:28.546Z,65.9
2018-04-30T09:53:20.302Z,66.1
2018-04-30T09:54:10.333Z,66.2
2018-04-30T09:55:00.151Z,66.3
2018-04-30T09:55:50.493Z,66.3
2018-04-30T09:56:40.296Z,66.4
2018-04-30T09:57:30.642Z,66.4
2018-04-30T09:58:20.762Z,66.5
2018-04-30T09:59:10.214Z,66.6
2018-04-30T10:00:00.577Z,66.6
2018-04-30T10:00:50.881Z,66.6
2018-04-30T10:01:40.678Z,66.4
2018-04-30T10:02:31.105Z,66.4
2018-04-30T10:03:21.137Z,66.3
2018-04-30T10:04:10.709Z,66.3
2018-04-30T10:05:01.232Z,66.4
2018-04-30T10:05:51.037Z,66.6
2018-04-30T10:06:41.098Z,66.7
2018-04-30T10:07:31.189Z,66.6
2018-04-30T10:08:21.234Z,66.6
2018-04-30T10:09:11.299Z,66.4
2018-04-30T10:10:01.337Z,66.3
2018-04-30T10:10:51.705Z,66.2
2018-04-30T10:11:41.492Z,66.1
2018-04-30T10:12:30.999Z,66.1
2018-04-30T10:13:21.617Z,66.1
2018-04-30T10:14:11.709Z,66
2018-04-30T10:15:01.547Z,66
2018-04-30T10:15:51.281Z,66.1
2018-04-30T10:16:41.642Z,66.2
2018-04-30T10:17:31.994Z,66.4
2018-04-30T10:18:22.406Z,66.5
2018-04-30T10:19:12.094Z,66.6
2018-04-30T10:20:01.104Z,66.6
2018-04-30T10:20:52.258Z,66.6
2018-04-30T10:21:42.642Z,66.5
2018-04-30T10:22:31.803Z,66.5
2018-04-30T10:23:23.107Z,66.5
2018-04-30T10:24:12.193Z,66.5
2018-04-30T10:25:01.423Z,66.6
2018-04-30T10:25:52.963Z,66.7
2018-04-30T10:26:42.706Z,66.9
2018-04-30T10:27:32.637Z,66.9
2018-04-30T10:28:22.520Z,67
2018-04-30T10:29:13.590Z,67.1
2018-04-30T10:30:02.754Z,67.1
2018-04-30T10:30:53.276Z,67.1
2018-04-30T10:31:44.102Z,67.3
2018-04-30T10:32:33.165Z,67.4
2018-04-30T10:33:22.937Z,67.3
2018-04-30T10:34:13.277Z,67.3
2018-04-30T10:35:03.374Z,67.3
2018-04-30T10:35:53.182Z,67.3
2018-04-30T10:36:43.501Z,67.4
2018-04-30T10:37:33.809Z,67.5
2018-04-30T10:38:23.634Z,67.6
2018-04-30T10:39:13.418Z,67.7
2018-04-30T10:40:03.751Z,67.8
2018-04-30T10:40:54.071Z,67.8
2018-04-30T10:41:44.163Z,67.9
2018-04-30T10:42:33.958Z,68
2018-04-30T10:43:23.464Z,68.1
2018-04-30T10:44:14.345Z,68.1
2018-04-30T10:45:04.429Z,68.2
2018-04-30T10:45:55.745Z,68.3
2018-04-30T10:46:43.992Z,68.3
2018-04-30T10:47:34.088Z,68.2
2018-04-30T10:48:24.679Z,68.1
2018-04-30T10:49:14.276Z,68
2018-04-30T10:50:04.001Z,68
2018-04-30T10:50:54.042Z,68.1
2018-04-30T10:51:45.126Z,68.1
2018-04-30T10:52:34.154Z,68.1
2018-04-30T10:53:25.068Z,68
2018-04-30T10:54:15.137Z,67.8
2018-04-30T10:55:04.954Z,67.8
2018-04-30T10:55:54.754Z,67.9
2018-04-30T10:56:45.046Z,67.9
2018-04-30T10:57:34.863Z,67.9
2018-04-30T10:58:25.027Z,67.8
2018-04-30T10:59:14.524Z,67.6
2018-04-30T11:00:04.789Z,67.5
2018-04-30T11:00:55.110Z,67.5
2018-04-30T11:01:44.942Z,67.6
2018-04-30T11:02:36.077Z,67.6
2018-04-30T11:03:25.587Z,67.8
2018-04-30T11:04:15.485Z,67.7
2018-04-30T11:05:05.198Z,67.6
2018-04-30T11:05:55.340Z,67.5
2018-04-30T11:06:45.659Z,67.4
2018-04-30T11:07:35.636Z,67.4
2018-04-30T11:08:26.306Z,67.4
2018-04-30T11:09:15.799Z,67.5
2018-04-30T11:10:05.881Z,67.6
2018-04-30T11:10:55.716Z,67.8
2018-04-30T11:11:45.980Z,67.9
2018-04-30T11:12:36.442Z,67.9
2018-04-30T11:13:25.841Z,67.9
2018-04-30T11:14:16.735Z,67.8
2018-04-30T11:15:06.812Z,67.7
2018-04-30T11:15:56.848Z,67.7
2018-04-30T11:16:46.353Z,67.8
2018-04-30T11:17:36.995Z,67.8
2018-04-30T11:18:26.782Z,67.8
2018-04-30T11:19:16.599Z,67.6
2018-04-30T11:20:06.946Z,67.6
2018-04-30T11:20:56.967Z,67.6
2018-04-30T11:21:47.050Z,67.6
2018-04-30T11:22:37.398Z,67.5
2018-04-30T11:23:26.937Z,67.4
2018-04-30T11:24:17.268Z,67.3
2018-04-30T11:25:07.591Z,67.2
2018-04-30T11:25:57.378Z,67.1
2018-04-30T11:26:47.173Z,67.2
2018-04-30T11:27:38.292Z,67.3
2018-04-30T11:28:27.607Z,67.4
2018-04-30T11:29:17.947Z,67.4
2018-04-30T11:30:07.436Z,67.3
2018-04-30T11:30:58.060Z,67.3
2018-04-30T11:31:47.275Z,67.3
2018-04-30T11:32:37.408Z,67.3
2018-04-30T11:33:28.040Z,67.3
2018-04-30T11:34:17.719Z,67.4
2018-04-30T11:35:08.507Z,67.4
2018-04-30T11:35:58.271Z,67.5
2018-04-30T11:36:48.596Z,67.6
2018-04-30T11:37:38.668Z,67.6
2018-04-30T11:38:28.434Z,67.8
2018-04-30T11:39:18.307Z,67.9
2018-04-30T11:40:09.089Z,68
2018-04-30T11:40:58.705Z,68.1
2018-04-30T11:41:48.708Z,68.1
2018-04-30T11:42:38.760Z,68.1
2018-04-30T11:43:28.844Z,68.1
2018-04-30T11:44:19.771Z,68.2
2018-04-30T11:45:09.019Z,68.3
2018-04-30T11:45:59.344Z,68.3
2018-04-30T11:46:49.145Z,68.3
2018-04-30T11:47:40.531Z,68.2
2018-04-30T11:48:28.685Z,68.1
2018-04-30T11:49:19.062Z,68
2018-04-30T11:50:09.385Z,67.9
2018-04-30T11:51:02.268Z,67.9
2018-04-30T11:51:48.732Z,67.8
2018-04-30T11:52:39.828Z,67.8
2018-04-30T11:53:29.065Z,67.8
2018-04-30T11:54:19.673Z,67.9
2018-04-30T11:55:09.781Z,67.9
2018-04-30T11:56:00.183Z,67.9
2018-04-30T11:56:49.631Z,67.7
2018-04-30T11:57:40.010Z,67.6
2018-04-30T11:58:30.329Z,67.4
2018-04-30T11:59:19.816Z,67.6
2018-04-30T12:00:09.593Z,67.6
2018-04-30T12:01:00.561Z,67.6
2018-04-30T12:01:50.303Z,67.6
2018-04-30T12:02:40.078Z,67.6
2018-04-30T12:03:29.898Z,67.6
2018-04-30T12:04:20.273Z,67.6
2018-04-30T12:05:10.278Z,67.6
2018-04-30T12:06:00.348Z,67.6
2018-04-30T12:06:50.484Z,67.5
2018-04-30T12:07:41.095Z,67.4
2018-04-30T12:08:30.902Z,67.4
2018-04-30T12:09:20.622Z,67.3
2018-04-30T12:10:11.475Z,67.3
2018-04-30T12:11:01.884Z,67.3
2018-04-30T12:11:51.421Z,67.1
2018-04-30T12:12:40.859Z,67.1
2018-04-30T12:13:32.483Z,67
2018-04-30T12:14:21.002Z,67
2018-04-30T12:15:11.677Z,67
2018-04-30T12:16:01.385Z,66.9
2018-04-30T12:16:53.541Z,66.9
2018-04-30T12:17:40.823Z,66.8
2018-04-30T12:18:31.696Z,66.8
2018-04-30T12:19:21.234Z,66.8
2018-04-30T12:20:13.155Z,66.7
2018-04-30T12:21:01.377Z,66.6
2018-04-30T12:21:51.871Z,66.6
2018-04-30T12:22:42.309Z,66.6
2018-04-30T12:23:32.798Z,66.6
2018-04-30T12:24:21.782Z,66.6
2018-04-30T12:25:12.457Z,66.6
2018-04-30T12:26:02.225Z,66.6
2018-04-30T12:26:51.717Z,66.6
2018-04-30T12:27:42.147Z,66.6
2018-04-30T12:28:32.433Z,66.5
2018-04-30T12:29:22.767Z,66.4
2018-04-30T12:30:12.559Z,66.3
2018-04-30T12:31:02.627Z,66.2
2018-04-30T12:31:52.673Z,66.1
2018-04-30T12:32:42.880Z,66.1
2018-04-30T12:33:34.473Z,66
2018-04-30T12:34:22.863Z,65.9
2018-04-30T12:35:13.252Z,65.8
2018-04-30T12:36:03.609Z,65.7
2018-04-30T12:36:53.097Z,65.6
2018-04-30T12:37:43.209Z,65.6
2018-04-30T12:38:33.037Z,65.5
2018-04-30T12:39:24.543Z,65.4
2018-04-30T12:40:13.411Z,65.4
2018-04-30T12:41:03.674Z,65.3
2018-04-30T12:41:53.203Z,65.2
2018-04-30T12:42:45.516Z,65.1
2018-04-30T12:43:33.920Z,65.1
2018-04-30T12:44:23.201Z,65
2018-04-30T12:45:13.763Z,64.9
2018-04-30T12:46:06.556Z,64.9
2018-04-30T12:46:54.181Z,64.9
2018-04-30T12:47:44.049Z,64.8
2018-04-30T12:48:34.083Z,64.7
2018-04-30T12:49:26.986Z,64.6
2018-04-30T12:50:14.430Z,64.6
2018-04-30T12:51:03.932Z,64.4
2018-04-30T12:51:54.305Z,64.4
2018-04-30T12:52:44.085Z,64.3
2018-04-30T12:53:34.684Z,64.1
2018-04-30T12:54:24.769Z,64.1
2018-04-30T12:55:14.552Z,63.9
2018-04-30T12:56:06.160Z,63.8
2018-04-30T12:56:54.968Z,63.8
2018-04-30T12:57:44.445Z,63.6
2018-04-30T12:58:34.862Z,63.5
2018-04-30T12:59:24.620Z,63.4
2018-04-30T13:00:14.652Z,63.3
2018-04-30T13:01:05.301Z,63.1
2018-04-30T13:01:58.896Z,63.1
2018-04-30T13:02:45.449Z,63
2018-04-30T13:03:34.905Z,62.9
2018-04-30T13:04:24.139Z,62.8
2018-04-30T13:05:15.336Z,62.6
2018-04-30T13:06:05.788Z,62.5
2018-04-30T13:06:55.564Z,62.4
2018-04-30T13:07:44.979Z,62.1
2018-04-30T13:08:35.905Z,61.5
2018-04-30T13:09:25.703Z,60.8
2018-04-30T13:10:15.429Z,60.1
2018-04-30T13:11:07.112Z,59.6
2018-04-30T13:11:55.568Z,59.2
2018-04-30T13:12:45.337Z,58.9
2018-04-30T13:13:36.359Z,58.4
2018-04-30T13:14:29.711Z,57.9
2018-04-30T13:15:15.983Z,57.4
2018-04-30T13:16:06.213Z,57.1
2018-04-30T13:16:56.536Z,56.7
2018-04-30T13:17:46.295Z,56.3
2018-04-30T13:18:36.124Z,56
2018-04-30T13:19:26.195Z,55.7
2018-04-30T13:20:16.225Z,55.4
2018-04-30T13:21:06.325Z,55.2
2018-04-30T13:21:56.415Z,54.9
2018-04-30T13:22:46.254Z,54.8
2018-04-30T13:23:37.070Z,54.5
2018-04-30T13:24:27.071Z,54.3
2018-04-30T13:25:17.125Z,54.1
2018-04-30T13:26:06.771Z,53.9
2018-04-30T13:26:56.169Z,53.8
2018-04-30T13:27:46.762Z,53.6
2018-04-30T13:28:37.985Z,53.4
2018-04-30T13:29:26.926Z,53.3
2018-04-30T13:30:17.526Z,53.2
2018-04-30T13:31:06.767Z,53
2018-04-30T13:31:57.378Z,52.9
2018-04-30T13:32:47.769Z,52.8
2018-04-30T13:33:37.209Z,52.6
2018-04-30T13:34:27.591Z,52.5
2018-04-30T13:36:07.419Z,52.3
2018-04-30T13:36:57.199Z,52.2
2018-04-30T13:37:48.112Z,52.1
2018-04-30T13:39:27.664Z,51.8
2018-04-30T13:40:18.035Z,51.8
2018-04-30T13:41:08.386Z,51.6
2018-04-30T13:41:58.439Z,51.6
2018-04-30T13:42:48.521Z,51.4
2018-04-30T13:43:38.770Z,51.4
2018-04-30T13:44:28.361Z,51.3
2018-04-30T13:45:18.430Z,51.1
2018-04-30T13:46:08.774Z,51.1
2018-04-30T13:46:58.859Z,51
2018-04-30T13:47:48.586Z,50.9
2018-04-30T13:48:39.003Z,50.8
2018-04-30T13:49:28.760Z,50.7
2018-04-30T13:50:19.078Z,50.6
2018-04-30T13:51:08.613Z,50.6
2018-04-30T13:51:59.229Z,50.4
2018-04-30T13:52:48.465Z,50.4
2018-04-30T13:53:39.393Z,50.3
2018-04-30T13:54:28.966Z,50.2
2018-04-30T13:55:19.200Z,50.1
2018-04-30T13:56:08.723Z,50.1
2018-04-30T13:56:59.650Z,50
2018-04-30T13:57:49.752Z,49.9
2018-04-30T13:58:39.515Z,49.8
2018-04-30T13:59:28.745Z,49.8
2018-04-30T14:00:19.870Z,49.7
2018-04-30T14:01:09.113Z,49.6
2018-04-30T14:02:00.456Z,49.6
2018-04-30T14:02:49.812Z,49.4
2018-04-30T14:03:40.160Z,49.4
2018-04-30T14:04:29.963Z,49.4
2018-04-30T14:05:19.995Z,49.3
2018-04-30T14:06:10.367Z,49.2
2018-04-30T14:07:00.229Z,49.1
2018-04-30T14:07:49.627Z,49.1
2018-04-30T14:08:40.265Z,49.1
2018-04-30T14:09:30.762Z,48.9
2018-04-30T14:10:19.569Z,48.9
2018-04-30T14:11:10.466Z,48.8
2018-04-30T14:12:00.791Z,48.8
2018-04-30T14:12:50.592Z,48.8
2018-04-30T14:13:41.029Z,48.7
2018-04-30T14:14:31.004Z,48.6
2018-04-30T14:15:20.510Z,48.6
2018-04-30T14:16:11.545Z,48.5
2018-04-30T14:17:00.948Z,48.4
2018-04-30T14:17:51.243Z,48.4
2018-04-30T14:18:41.316Z,48.3
2018-04-30T14:19:31.427Z,48.3
2018-04-30T14:20:20.643Z,48.2
2018-04-30T14:21:11.273Z,48.2
2018-04-30T14:22:01.329Z,48.1
2018-04-30T14:22:51.679Z,48.1
2018-04-30T14:23:41.443Z,48
2018-04-30T14:24:31.231Z,48
2018-04-30T14:25:21.320Z,47.9
2018-04-30T14:26:11.392Z,47.9
2018-04-30T14:27:00.872Z,47.8
2018-04-30T14:27:52.072Z,47.8
2018-04-30T14:28:41.837Z,47.8
2018-04-30T14:29:31.356Z,47.7
2018-04-30T14:30:21.689Z,47.6
2018-04-30T14:31:10.651Z,47.6
2018-04-30T14:32:02.389Z,47.6
2018-04-30T14:32:51.627Z,47.5
2018-04-30T14:33:42.046Z,47.4
2018-04-30T14:34:31.729Z,47.4
2018-04-30T14:35:22.393Z,47.4
2018-04-30T14:36:12.735Z,47.3
2018-04-30T14:37:02.558Z,47.3
2018-04-30T14:37:52.605Z,47.2
2018-04-30T14:38:42.641Z,47.2
2018-04-30T14:39:32.794Z,47.1
2018-04-30T14:40:22.783Z,47.1
2018-04-30T14:41:12.266Z,47.1
2018-04-30T14:42:03.218Z,47
2018-04-30T14:42:53.270Z,46.9
2018-04-30T14:43:43.032Z,46.9
2018-04-30T14:44:34.143Z,46.9
2018-04-30T14:45:22.880Z,46.9
2018-04-30T14:46:13.202Z,46.8
2018-04-30T14:47:03.542Z,46.8
2018-04-30T14:47:53.618Z,46.7
2018-04-30T14:48:43.439Z,46.6
2018-04-30T14:49:33.482Z,46.6
2018-04-30T14:50:23.334Z,46.6
2018-04-30T14:51:13.868Z,46.6
2018-04-30T14:52:03.107Z,46.5
2018-04-30T14:52:53.442Z,46.4
2018-04-30T14:53:44.066Z,46.4
2018-04-30T14:54:33.890Z,46.4
2018-04-30T14:55:23.380Z,46.3
2018-04-30T14:56:14.025Z,46.3
2018-04-30T14:57:04.191Z,46.3
2018-04-30T14:57:53.850Z,46.2
2018-04-30T14:58:44.172Z,46.2
2018-04-30T14:59:34.539Z,46.2
2018-04-30T15:00:24.641Z,46.1
2018-04-30T15:01:13.831Z,46.1
2018-04-30T15:02:04.756Z,46
2018-04-30T15:02:54.239Z,45.9
2018-04-30T15:03:44.859Z,45.9
2018-04-30T15:04:34.652Z,45.9
2018-04-30T15:05:24.430Z,45.9
2018-04-30T15:06:14.890Z,45.8
2018-04-30T15:07:04.040Z,45.8
2018-04-30T15:07:54.934Z,45.8
2018-04-30T15:08:45.270Z,45.7
2018-04-30T15:09:34.775Z,45.7
2018-04-30T15:10:25.129Z,45.6
2018-04-30T15:11:14.981Z,45.6
2018-04-30T15:12:05.230Z,45.6
2018-04-30T15:12:55.054Z,45.6
2018-04-30T15:13:45.089Z,45.5
2018-04-30T15:14:35.527Z,45.5
2018-04-30T15:15:24.749Z,45.4
2018-04-30T15:16:14.994Z,45.4
2018-04-30T15:17:05.110Z,45.4
2018-04-30T15:17:56.024Z,45.3
2018-04-30T15:18:45.766Z,45.3
2018-04-30T15:19:35.857Z,45.3
2018-04-30T15:20:24.858Z,45.2
2018-04-30T15:21:15.690Z,45.2
2018-04-30T15:22:05.459Z,45.2
2018-04-30T15:22:56.076Z,45.1
2018-04-30T15:23:46.446Z,45.1
2018-04-30T15:24:35.966Z,45.1
2018-04-30T15:25:26.028Z,45
2018-04-30T15:26:16.650Z,45
2018-04-30T15:27:06.491Z,44.9
2018-04-30T15:27:56.211Z,44.9
2018-04-30T15:28:46.270Z,44.9
2018-04-30T15:29:36.032Z,44.9
2018-04-30T15:30:26.672Z,44.8
2018-04-30T15:31:17.054Z,44.8
2018-04-30T15:32:06.820Z,44.8
2018-04-30T15:32:56.893Z,44.8
2018-04-30T15:33:46.718Z,44.8
2018-04-30T15:34:37.284Z,44.7
2018-04-30T15:35:27.080Z,44.7
2018-04-30T15:36:17.521Z,44.6
2018-04-30T15:37:07.458Z,44.6
2018-04-30T15:37:57.269Z,44.6
2018-04-30T15:38:47.337Z,44.6
2018-04-30T15:39:37.697Z,44.5
2018-04-30T15:40:27.198Z,44.5
2018-04-30T15:41:17.262Z,44.4
2018-04-30T15:42:08.265Z,44.4
2018-04-30T15:42:57.953Z,44.4
2018-04-30T15:43:46.878Z,44.4
2018-04-30T15:44:37.506Z,44.3
2018-04-30T15:45:27.283Z,44.3
2018-04-30T15:46:17.914Z,44.3
2018-04-30T15:47:08.253Z,44.3
2018-04-30T15:47:58.080Z,44.3
2018-04-30T15:48:47.919Z,44.2
2018-04-30T15:49:37.920Z,44.2
2018-04-30T15:50:27.970Z,44.2
2018-04-30T15:51:18.696Z,44.1
2018-04-30T15:52:08.407Z,44.1
2018-04-30T15:52:58.186Z,44.1
2018-04-30T15:53:48.226Z,44.1
2018-04-30T15:54:38.315Z,44
2018-04-30T15:55:28.357Z,44
2018-04-30T15:56:18.994Z,44
2018-04-30T15:57:08.513Z,44
2018-04-30T15:57:59.417Z,44
2018-04-30T15:58:48.637Z,43.9
2018-04-30T15:59:38.967Z,43.9
2018-04-30T16:00:28.743Z,43.9
2018-04-30T16:01:19.092Z,43.9
2018-04-30T16:02:08.918Z,43.8
2018-04-30T16:02:59.492Z,43.8
2018-04-30T16:03:49.314Z,43.8
2018-04-30T16:04:39.098Z,43.8
2018-04-30T16:05:28.852Z,43.8
2018-04-30T16:06:19.579Z,43.8
2018-04-30T16:07:09.612Z,43.7
2018-04-30T16:07:59.637Z,43.7
2018-04-30T16:08:49.673Z,43.6
2018-04-30T16:09:39.460Z,43.6
2018-04-30T16:10:29.547Z,43.6
2018-04-30T16:11:19.316Z,43.6
2018-04-30T16:12:09.662Z,43.6
2018-04-30T16:13:00.117Z,43.6
2018-04-30T16:13:50.464Z,43.5
2018-04-30T16:14:40.414Z,43.5
2018-04-30T16:15:29.922Z,43.5
2018-04-30T16:16:20.585Z,43.4
2018-04-30T16:17:10.104Z,43.4
2018-04-30T16:18:00.412Z,43.4
2018-04-30T16:18:50.456Z,43.4
2018-04-30T16:19:40.311Z,43.4
2018-04-30T16:20:30.201Z,43.4
2018-04-30T16:21:20.739Z,43.3
2018-04-30T16:22:10.731Z,43.2
2018-04-30T16:23:00.801Z,43.1
2018-04-30T16:23:51.159Z,43.1
2018-04-30T16:24:40.616Z,42.9
2018-04-30T16:25:30.717Z,42.9